createdAt,value
2019-05-06T00:02:02.125Z,5.20
2019-05-06T00:04:30.818Z,6.00
2019-05-06T00:13:49.533Z,5.47
2019-05-06T00:16:58.717Z,5.70
2019-05-06T00:19:27.715Z,5.77
2019-05-06T00:21:56.409Z,5.63
2019-05-06T00:25:11.092Z,5.40
2019-05-06T00:27:43.556Z,6.00
2019-05-06T00:30:11.992Z,5.87
2019-05-06T00:32:40.807Z,5.67
2019-05-06T00:35:09.621Z,5.70
2019-05-06T00:37:38.187Z,5.43
2019-05-06T00:40:08.637Z,5.03
2019-05-06T00:42:41.807Z,5.23
2019-05-06T00:45:13.625Z,5.23
2019-05-06T00:47:44.291Z,5.67
2019-05-06T00:50:14.263Z,5.93
2019-05-06T00:52:44.739Z,5.63
2019-05-06T00:55:13.800Z,5.93
2019-05-06T00:57:44.992Z,5.93
2019-05-06T01:00:17.598Z,4.87
2019-05-06T01:02:46.661Z,5.97
2019-05-06T01:05:15.915Z,5.53
2019-05-06T01:07:44.978Z,6.00
2019-05-06T01:10:14.973Z,5.50
2019-05-06T01:12:45.361Z,5.67
2019-05-06T01:15:17.335Z,5.50
2019-05-06T01:17:46.014Z,6.03
2019-05-06T01:20:15.173Z,5.33
2019-05-06T01:22:44.652Z,5.30
2019-05-06T01:48:03.892Z,6.20
2019-05-06T01:58:28.822Z,5.53
2019-05-06T02:07:26.842Z,5.80
2019-05-06T02:09:54.441Z,6.10
2019-05-06T02:12:24.610Z,6.60
2019-05-06T02:14:56.575Z,7.23
2019-05-06T02:17:25.256Z,7.07
2019-05-06T02:19:56.808Z,6.97
2019-05-06T02:22:34.586Z,6.10
2019-05-06T02:25:05.319Z,6.33
2019-05-06T02:27:34.170Z,6.87
2019-05-06T02:30:05.557Z,6.10
2019-05-06T02:32:38.835Z,6.27
2019-05-06T02:35:21.165Z,6.73
2019-05-06T02:37:49.773Z,6.20
2019-05-06T02:40:24.179Z,6.63
2019-05-06T02:42:54.103Z,7.00
2019-05-06T02:45:23.986Z,5.57
2019-05-06T02:48:09.020Z,6.27
2019-05-06T02:50:44.911Z,6.40
2019-05-06T02:53:15.004Z,7.00
2019-05-06T02:55:43.592Z,5.80
2019-05-06T02:58:14.902Z,5.93
2019-05-06T03:00:43.028Z,7.07
2019-05-06T03:03:14.005Z,6.87
2019-05-06T03:05:43.897Z,6.40
2019-05-06T03:08:13.751Z,6.70
2019-05-06T03:10:44.293Z,6.53
2019-05-06T03:13:14.420Z,6.63
2019-05-06T03:15:43.916Z,6.47
2019-05-06T03:18:14.669Z,7.50
2019-05-06T03:20:59.153Z,6.73
2019-05-06T03:23:35.012Z,6.53
2019-05-06T03:26:06.392Z,6.43
2019-05-06T03:28:34.048Z,6.30
2019-05-06T03:31:06.736Z,7.00
2019-05-06T03:33:55.340Z,7.50
2019-05-06T03:36:16.435Z,7.53
2019-05-06T03:38:36.980Z,7.87
2019-05-06T03:41:05.565Z,7.60
2019-05-06T03:43:34.186Z,7.93
2019-05-06T03:46:19.129Z,7.33
2019-05-06T03:48:55.203Z,7.10
2019-05-06T03:51:23.737Z,7.03
2019-05-06T03:53:56.318Z,7.23
2019-05-06T03:56:24.096Z,7.37
2019-05-06T03:58:54.091Z,7.30
2019-05-06T04:01:23.965Z,8.20
2019-05-06T04:03:56.975Z,8.47
2019-05-06T04:06:24.097Z,9.30
2019-05-06T04:08:53.831Z,9.93
2019-05-06T04:11:23.585Z,8.93
2019-05-06T04:13:53.812Z,8.63
2019-05-06T04:16:38.635Z,9.50
2019-05-06T04:19:23.492Z,8.40
2019-05-06T04:21:53.483Z,8.60
2019-05-06T04:24:38.739Z,8.20
2019-05-06T04:27:35.462Z,7.60
2019-05-06T04:30:05.433Z,8.47
2019-05-06T04:32:35.516Z,8.80
2019-05-06T04:35:04.790Z,7.67
2019-05-06T04:37:34.135Z,7.00
2019-05-06T04:40:04.543Z,7.77
2019-05-06T04:42:34.426Z,7.90
2019-05-06T04:45:04.641Z,7.70
2019-05-06T04:47:33.605Z,7.83
2019-05-06T04:50:04.939Z,7.37
2019-05-06T04:52:34.234Z,7.07
2019-05-06T04:55:03.792Z,7.73
2019-05-06T04:57:33.608Z,13.37
2019-05-06T05:00:04.222Z,16.90
2019-05-06T05:02:33.858Z,13.87
2019-05-06T05:05:04.144Z,11.43
2019-05-06T05:07:33.548Z,10.83
2019-05-06T05:10:04.051Z,10.43
2019-05-06T05:12:52.646Z,9.70
2019-05-06T05:15:22.869Z,15.60
2019-05-06T05:17:53.106Z,10.87
2019-05-06T05:20:36.096Z,14.33
2019-05-06T05:22:52.832Z,10.93
2019-05-06T05:25:22.399Z,8.27
2019-05-06T05:27:52.734Z,12.00
2019-05-06T05:30:22.003Z,10.83
2019-05-06T05:32:52.100Z,10.13
2019-05-06T05:35:22.609Z,10.07
2019-05-06T05:37:52.890Z,10.53
2019-05-06T05:40:22.525Z,11.53
2019-05-06T05:42:58.447Z,9.20
2019-05-06T05:45:27.329Z,8.30
2019-05-06T05:47:57.592Z,7.83
2019-05-06T05:50:27.888Z,8.43
2019-05-06T05:52:56.503Z,10.77
2019-05-06T05:55:25.155Z,8.27
2019-05-06T05:57:53.784Z,8.00
2019-05-06T06:00:24.009Z,8.13
2019-05-06T06:02:53.108Z,9.00
2019-05-06T06:05:21.923Z,8.10
2019-05-06T06:07:52.856Z,7.27
2019-05-06T06:10:25.681Z,8.23
2019-05-06T06:12:55.360Z,7.80
2019-05-06T06:15:43.691Z,7.33
2019-05-06T06:18:23.030Z,6.70
2019-05-06T06:20:59.349Z,8.10
2019-05-06T06:23:35.495Z,8.83
2019-05-06T06:26:05.771Z,9.27
2019-05-06T06:28:34.570Z,8.40
2019-05-06T06:31:08.193Z,12.17
2019-05-06T06:33:36.774Z,14.27
2019-05-06T06:36:12.141Z,10.73
2019-05-06T06:38:47.831Z,7.33
2019-05-06T06:41:16.700Z,7.13
2019-05-06T06:43:46.996Z,6.27
2019-05-06T06:46:16.223Z,6.73
2019-05-06T06:48:45.054Z,7.30
2019-05-06T06:51:13.701Z,6.80
2019-05-06T06:53:42.337Z,7.00
2019-05-06T06:56:27.967Z,6.47
2019-05-06T06:59:14.467Z,6.40
2019-05-06T07:01:52.897Z,7.13
2019-05-06T07:04:23.661Z,6.47
2019-05-06T07:06:56.879Z,6.07
2019-05-06T07:09:25.532Z,6.37
2019-05-06T07:11:54.238Z,6.70
2019-05-06T07:14:22.930Z,6.23
2019-05-06T07:16:53.330Z,6.13
2019-05-06T07:19:23.421Z,6.20
2019-05-06T07:21:59.213Z,6.00
2019-05-06T07:24:27.781Z,6.00
2019-05-06T07:27:07.007Z,6.77
2019-05-06T07:29:35.560Z,6.40
2019-05-06T07:32:04.287Z,6.97
2019-05-06T07:34:32.841Z,5.60
2019-05-06T07:37:03.471Z,6.10
2019-05-06T07:39:33.336Z,6.00
2019-05-06T07:42:03.749Z,6.27
2019-05-06T07:44:52.937Z,6.17
2019-05-06T07:47:23.937Z,5.60
2019-05-06T07:49:53.090Z,5.17
2019-05-06T07:52:23.033Z,5.50
2019-05-06T07:54:53.329Z,5.17
2019-05-06T07:57:22.294Z,5.43
2019-05-06T07:59:52.529Z,5.47
2019-05-06T08:02:22.857Z,5.23
2019-05-06T08:04:53.169Z,5.43
2019-05-06T08:07:22.420Z,4.83
2019-05-06T08:09:52.847Z,4.80
2019-05-06T08:12:22.319Z,4.87
2019-05-06T08:14:52.428Z,4.67
2019-05-06T08:17:22.762Z,5.97
2019-05-06T08:19:52.907Z,18.50
2019-05-06T08:22:42.289Z,5.70
2019-05-06T08:25:12.174Z,4.70
2019-05-06T08:27:42.585Z,4.87
2019-05-06T08:30:12.917Z,4.03
2019-05-06T08:32:42.480Z,4.57
2019-05-06T08:35:13.361Z,4.57
2019-05-06T08:37:43.104Z,9.73
2019-05-06T08:40:12.265Z,6.73
2019-05-06T08:42:42.620Z,5.33
2019-05-06T08:45:13.104Z,5.20
2019-05-06T08:47:42.622Z,4.77
2019-05-06T08:50:13.243Z,4.90
2019-05-06T08:52:55.252Z,4.73
2019-05-06T08:55:42.079Z,5.00
2019-05-06T08:58:10.949Z,4.23
2019-05-06T09:00:44.218Z,3.97
2019-05-06T09:03:14.268Z,4.17
2019-05-06T09:05:44.716Z,3.77
2019-05-06T09:08:13.691Z,4.03
2019-05-06T09:10:42.954Z,4.07
2019-05-06T09:13:12.320Z,4.00
2019-05-06T09:15:42.869Z,4.10
2019-05-06T09:18:12.457Z,4.20
2019-05-06T09:20:43.120Z,3.90
2019-05-06T09:23:12.407Z,3.57
2019-05-06T09:25:42.495Z,3.80
2019-05-06T09:28:13.253Z,3.63
2019-05-06T09:30:43.482Z,3.73
2019-05-06T09:33:12.952Z,4.03
2019-05-06T09:35:42.263Z,3.40
2019-05-06T09:38:12.749Z,4.47
2019-05-06T09:40:43.084Z,4.10
2019-05-06T09:43:13.202Z,4.20
2019-05-06T09:45:42.463Z,4.17
2019-05-06T09:48:13.077Z,3.97
2019-05-06T09:50:46.063Z,4.20
2019-05-06T09:53:15.329Z,4.17
2019-05-06T09:55:45.719Z,4.17
2019-05-06T09:58:14.302Z,4.00
2019-05-06T10:00:44.645Z,3.67
2019-05-06T10:03:13.995Z,3.70
2019-05-06T10:05:42.643Z,4.50
2019-05-06T10:08:12.418Z,4.03
2019-05-06T10:10:55.253Z,4.40
2019-05-06T10:13:12.824Z,4.53
2019-05-06T10:15:42.878Z,4.53
2019-05-06T10:18:13.274Z,4.57
2019-05-06T10:20:44.390Z,4.40
2019-05-06T10:23:13.789Z,4.10
2019-05-06T10:25:43.607Z,4.20
2019-05-06T10:28:25.172Z,4.30
2019-05-06T10:30:53.742Z,4.10
2019-05-06T10:33:23.990Z,3.97
2019-05-06T10:35:53.067Z,4.10
2019-05-06T10:39:02.385Z,3.90
2019-05-06T10:41:34.059Z,4.30
2019-05-06T10:44:16.991Z,3.83
2019-05-06T10:46:45.593Z,4.10
2019-05-06T10:49:14.272Z,3.70
2019-05-06T10:51:52.852Z,4.57
2019-05-06T10:54:22.753Z,4.00
2019-05-06T10:56:56.906Z,3.80
2019-05-06T10:59:24.291Z,4.53
2019-05-06T11:01:55.336Z,4.70
2019-05-06T11:04:23.995Z,5.00
2019-05-06T11:06:52.714Z,4.93
2019-05-06T11:09:22.639Z,4.53
2019-05-06T11:11:55.490Z,4.93
2019-05-06T11:14:24.191Z,5.33
2019-05-06T11:16:52.854Z,4.77
2019-05-06T11:19:23.081Z,4.90
2019-05-06T11:21:53.138Z,4.77
2019-05-06T11:24:23.138Z,5.00
2019-05-06T11:26:53.300Z,4.60
2019-05-06T11:29:43.514Z,4.73
2019-05-06T11:32:16.402Z,4.70
2019-05-06T11:34:52.588Z,5.00
2019-05-06T11:37:24.615Z,5.53
2019-05-06T11:39:53.340Z,4.40
2019-05-06T11:42:30.935Z,5.23
2019-05-06T11:44:53.056Z,5.03
2019-05-06T11:47:23.268Z,5.10
2019-05-06T11:49:56.124Z,5.40
2019-05-06T11:52:24.148Z,5.87
2019-05-06T11:54:53.062Z,4.03
2019-05-06T11:57:23.199Z,4.97
2019-05-06T11:59:52.838Z,4.50
2019-05-06T12:02:23.534Z,4.87
2019-05-06T12:04:52.751Z,4.83
2019-05-06T12:07:24.563Z,5.07
2019-05-06T12:09:54.146Z,4.40
2019-05-06T12:12:23.302Z,5.57
2019-05-06T12:14:52.690Z,4.80
2019-05-06T12:17:22.319Z,4.67
2019-05-06T12:19:52.811Z,5.37
2019-05-06T12:22:22.141Z,5.20
2019-05-06T12:24:52.547Z,4.97
2019-05-06T12:27:39.478Z,5.57
2019-05-06T12:30:08.550Z,5.50
2019-05-06T12:32:38.785Z,5.13
2019-05-06T12:35:08.031Z,5.17
2019-05-06T12:37:38.237Z,5.50
2019-05-06T12:40:07.171Z,5.60
2019-05-06T12:42:43.019Z,5.73
2019-05-06T12:45:13.155Z,5.50
2019-05-06T12:47:46.125Z,5.30
2019-05-06T12:50:14.825Z,5.60
2019-05-06T12:52:44.104Z,5.70
2019-05-06T12:55:21.337Z,6.10
2019-05-06T12:57:44.872Z,5.43
2019-05-06T13:00:14.128Z,6.07
2019-05-06T13:02:43.744Z,6.37
2019-05-06T13:05:13.415Z,6.07
2019-05-06T13:07:43.665Z,6.77
2019-05-06T13:10:13.085Z,7.80
2019-05-06T13:12:43.502Z,7.37
2019-05-06T13:15:13.287Z,6.33
2019-05-06T13:17:42.603Z,6.80
2019-05-06T13:20:14.657Z,6.60
2019-05-06T13:22:43.549Z,6.40
2019-05-06T13:25:13.503Z,5.67
2019-05-06T13:27:43.028Z,5.00
2019-05-06T13:30:12.944Z,6.50
2019-05-06T13:32:46.211Z,5.90
2019-05-06T13:35:15.009Z,4.93
2019-05-06T13:37:43.763Z,5.00
2019-05-06T13:40:12.764Z,5.33
2019-05-06T13:42:43.242Z,5.40
2019-05-06T13:45:12.208Z,5.50
2019-05-06T13:47:45.428Z,5.80
2019-05-06T13:50:19.464Z,5.07
2019-05-06T13:53:04.790Z,5.40
2019-05-06T13:55:21.917Z,5.30
2019-05-06T13:57:52.200Z,4.90
2019-05-06T14:00:22.478Z,5.00
2019-05-06T14:03:01.964Z,5.67
2019-05-06T14:05:30.019Z,5.27
2019-05-06T14:08:01.663Z,6.60
2019-05-06T14:10:28.847Z,4.97
2019-05-06T14:12:57.463Z,4.80
2019-05-06T14:15:26.092Z,5.37
2019-05-06T14:17:54.676Z,5.23
2019-05-06T14:20:23.237Z,5.67
2019-05-06T14:22:52.715Z,6.80
2019-05-06T14:25:39.001Z,5.83
2019-05-06T14:28:15.102Z,4.87
2019-05-06T14:30:54.244Z,5.97
2019-05-06T14:33:23.671Z,5.77
2019-05-06T14:35:52.691Z,5.90
2019-05-06T14:38:24.685Z,6.03
2019-05-06T14:41:07.262Z,6.30
2019-05-06T14:43:32.545Z,6.10
2019-05-06T14:46:01.407Z,6.13
2019-05-06T14:48:30.070Z,5.23
2019-05-06T14:50:58.790Z,5.97
2019-05-06T14:53:27.387Z,5.50
2019-05-06T14:55:57.736Z,5.73
2019-05-06T14:58:26.373Z,5.80
2019-05-06T15:00:54.961Z,5.37
2019-05-06T15:03:24.595Z,5.43
2019-05-06T15:05:53.154Z,7.00
2019-05-06T15:08:22.487Z,5.73
2019-05-06T15:10:51.214Z,7.73
2019-05-06T15:13:19.800Z,6.97
2019-05-06T15:15:48.384Z,7.57
2019-05-06T15:18:16.945Z,6.80
2019-05-06T15:20:45.530Z,6.23
2019-05-06T15:23:14.203Z,6.23
2019-05-06T15:25:42.786Z,6.67
2019-05-06T15:28:13.066Z,6.47
2019-05-06T15:30:49.586Z,7.13
2019-05-06T15:33:22.541Z,11.47
2019-05-06T15:35:59.138Z,10.50
2019-05-06T15:38:29.418Z,8.60
2019-05-06T15:40:57.997Z,8.40
2019-05-06T15:43:26.644Z,8.70
2019-05-06T15:45:55.209Z,9.40
2019-05-06T15:48:23.769Z,10.03
2019-05-06T15:50:53.283Z,10.47
2019-05-06T15:53:22.541Z,10.63
2019-05-06T15:55:53.322Z,9.57
2019-05-06T15:58:22.879Z,9.43
2019-05-06T16:00:53.153Z,9.63
2019-05-06T16:03:22.733Z,9.00
2019-05-06T16:05:54.671Z,9.27
2019-05-06T16:08:24.536Z,9.10
2019-05-06T16:10:58.482Z,8.53
2019-05-06T16:13:23.640Z,9.23
2019-05-06T16:15:53.205Z,12.30
2019-05-06T16:18:23.626Z,14.20
2019-05-06T16:20:52.299Z,11.63
2019-05-06T16:23:25.484Z,9.90
2019-05-06T16:25:54.157Z,9.37
2019-05-06T16:28:22.781Z,23.17
2019-05-06T16:30:53.460Z,17.33
2019-05-06T16:33:22.190Z,26.73
2019-05-06T16:35:52.242Z,24.57
2019-05-06T16:38:23.017Z,9.10
2019-05-06T16:41:02.178Z,8.50
2019-05-06T16:43:22.146Z,8.70
2019-05-06T16:45:53.139Z,8.27
2019-05-06T16:48:22.554Z,8.37
2019-05-06T16:50:51.301Z,9.00
2019-05-06T16:53:19.844Z,8.53
2019-05-06T16:55:58.894Z,8.83
2019-05-06T16:58:33.184Z,9.07
2019-05-06T17:01:03.246Z,8.37
2019-05-06T17:03:36.458Z,7.97
2019-05-06T17:06:15.847Z,8.37
2019-05-06T17:08:44.471Z,8.87
2019-05-06T17:11:24.304Z,8.20
2019-05-06T17:13:44.683Z,7.77
2019-05-06T17:16:13.937Z,8.30
2019-05-06T17:18:42.826Z,8.43
2019-05-06T17:21:13.166Z,8.80
2019-05-06T17:23:42.435Z,10.00
2019-05-06T17:26:12.782Z,9.30
2019-05-06T17:29:02.733Z,7.90
2019-05-06T17:31:35.524Z,7.53
2019-05-06T17:34:05.978Z,8.17
2019-05-06T17:36:36.199Z,8.20
2019-05-06T17:39:09.096Z,8.73
2019-05-06T17:41:46.009Z,8.10
2019-05-06T17:44:12.003Z,7.97
2019-05-06T17:46:57.904Z,9.00
2019-05-06T17:49:28.108Z,8.37
2019-05-06T17:52:07.543Z,9.10
2019-05-06T17:54:36.096Z,9.10
2019-05-06T17:57:04.909Z,9.43
2019-05-06T17:59:37.126Z,8.43
2019-05-06T18:02:14.910Z,8.20
2019-05-06T18:04:43.615Z,9.10
2019-05-06T18:07:12.457Z,8.43
2019-05-06T18:09:42.663Z,8.63
2019-05-06T18:12:12.123Z,7.73
2019-05-06T18:14:43.272Z,8.40
2019-05-06T18:17:12.476Z,8.50
2019-05-06T18:19:41.321Z,9.93
2019-05-06T18:22:09.939Z,11.03
2019-05-06T18:24:38.598Z,12.07
2019-05-06T18:27:07.173Z,12.07
2019-05-06T18:29:35.804Z,11.70
2019-05-06T18:32:04.541Z,9.77
2019-05-06T18:34:33.380Z,8.67
2019-05-06T18:37:03.151Z,8.30
2019-05-06T18:39:33.700Z,8.37
2019-05-06T18:42:16.077Z,8.37
2019-05-06T18:44:33.335Z,7.67
2019-05-06T18:47:02.831Z,8.00
2019-05-06T18:49:33.721Z,8.63
2019-05-06T18:52:02.250Z,8.43
2019-05-06T18:54:33.598Z,9.00
2019-05-06T18:57:04.594Z,8.50
2019-05-06T18:59:32.980Z,9.30
2019-05-06T19:02:02.232Z,8.83
2019-05-06T19:04:36.218Z,8.77
2019-05-06T19:07:12.768Z,9.23
2019-05-06T19:09:37.252Z,8.87
2019-05-06T19:12:05.944Z,9.00
2019-05-06T19:14:34.611Z,8.33
2019-05-06T19:17:03.632Z,8.10
2019-05-06T19:19:34.775Z,9.30
2019-05-06T19:22:03.063Z,8.73
2019-05-06T19:24:33.851Z,9.43
2019-05-06T19:27:02.506Z,8.83
2019-05-06T19:29:32.795Z,8.67
2019-05-06T19:32:02.987Z,9.00
2019-05-06T19:34:34.433Z,9.23
2019-05-06T19:37:02.657Z,8.90
2019-05-06T19:39:32.564Z,9.10
2019-05-06T19:42:02.815Z,9.60
2019-05-06T19:44:31.739Z,9.47
2019-05-06T19:47:02.555Z,9.27
2019-05-06T19:49:32.806Z,9.70
2019-05-06T19:52:03.161Z,9.40
2019-05-06T19:54:33.009Z,9.60
2019-05-06T19:57:02.608Z,9.03
2019-05-06T19:59:33.111Z,9.60
2019-05-06T20:02:01.841Z,9.70
2019-05-06T20:04:33.097Z,8.70
2019-05-06T20:07:02.740Z,9.73
2019-05-06T20:09:33.095Z,9.73
2019-05-06T20:12:09.208Z,10.57
2019-05-06T20:14:37.866Z,10.00
2019-05-06T20:17:06.424Z,10.13
2019-05-06T20:19:35.136Z,11.00
2019-05-06T20:22:03.937Z,10.40
2019-05-06T20:24:33.303Z,11.10
2019-05-06T20:27:02.469Z,12.17
2019-05-06T20:29:32.975Z,11.30
2019-05-06T20:32:01.275Z,11.70
2019-05-06T20:34:31.965Z,12.80
2019-05-06T20:37:02.059Z,10.20
2019-05-06T20:39:32.252Z,11.73
2019-05-06T20:42:02.875Z,10.80
2019-05-06T20:44:32.470Z,10.80
2019-05-06T20:47:13.056Z,10.90
2019-05-06T20:49:43.327Z,9.80
2019-05-06T20:52:16.073Z,10.03
2019-05-06T20:54:45.290Z,10.00
2019-05-06T20:57:14.315Z,9.43
2019-05-06T20:59:52.613Z,9.53
2019-05-06T21:02:23.212Z,9.40
2019-05-06T21:04:48.492Z,9.57
2019-05-06T21:07:17.185Z,10.83
2019-05-06T21:09:46.030Z,9.60
2019-05-06T21:12:14.598Z,9.83
2019-05-06T21:14:43.159Z,10.57
2019-05-06T21:17:13.385Z,9.63
2019-05-06T21:19:42.079Z,9.57
2019-05-06T21:22:13.097Z,9.17
2019-05-06T21:24:43.033Z,9.80
2019-05-06T21:27:12.371Z,9.43
2019-05-06T21:29:42.369Z,10.80
2019-05-06T21:32:30.213Z,9.17
2019-05-06T21:34:58.787Z,9.67
2019-05-06T21:37:27.610Z,9.67
2019-05-06T21:39:56.476Z,10.00
2019-05-06T21:42:25.205Z,9.17
2019-05-06T21:44:53.941Z,8.87
2019-05-06T21:47:22.578Z,9.27
2019-05-06T21:49:52.858Z,9.17
2019-05-06T21:52:34.296Z,9.00
2019-05-06T21:54:53.407Z,8.30
2019-05-06T21:57:22.027Z,9.30
2019-05-06T21:59:52.550Z,9.63
2019-05-06T22:02:23.045Z,8.77
2019-05-06T22:04:52.345Z,8.57
2019-05-06T22:07:22.902Z,9.93
2019-05-06T22:09:52.742Z,8.37
2019-05-06T22:12:24.367Z,8.77
2019-05-06T22:14:53.030Z,9.07
2019-05-06T22:17:22.575Z,8.77
2019-05-06T22:19:52.402Z,9.10
2019-05-06T22:22:23.441Z,8.40
2019-05-06T22:24:55.644Z,9.70
2019-05-06T22:27:22.678Z,9.43
2019-05-06T22:29:52.213Z,9.33
2019-05-06T22:32:23.058Z,9.67
2019-05-06T22:34:51.111Z,9.23
2019-05-06T22:37:21.980Z,9.73
2019-05-06T22:39:52.559Z,8.80
2019-05-06T22:42:20.337Z,8.67
2019-05-06T22:44:48.989Z,8.67
2019-05-06T22:47:17.639Z,9.40
2019-05-06T22:49:46.259Z,9.53
2019-05-06T22:52:14.880Z,10.17
2019-05-06T22:54:43.548Z,9.73
2019-05-06T22:57:12.186Z,10.33
2019-05-06T22:59:42.577Z,10.73
2019-05-06T23:02:13.217Z,10.23
2019-05-06T23:04:53.084Z,10.50
2019-05-06T23:07:22.509Z,10.33
2019-05-06T23:09:52.146Z,9.97
2019-05-06T23:12:22.996Z,10.43
2019-05-06T23:14:53.733Z,10.10
2019-05-06T23:17:22.268Z,10.20
2019-05-06T23:19:52.722Z,10.23
2019-05-06T23:22:22.748Z,11.50
2019-05-06T23:54:49.219Z,10.67
2019-05-06T23:59:57.299Z,10.90
